Time;durP1;ratioP1;P1;durP2;ratioP2;P2;SDS_P1;SDS_P2;PMS_P1;PMS_P2;Temp;Humidity;BMP_temperature;BMP_pressure;BME280_temperature;BME280_humidity;BME280_pressure;Samples;Min_cycle;Max_cycle;Signal;HPM_P1;HPM_P2
2022/12/01 00:00:59;;;;;;;169.10;53.03;;;5.30;99.90;;;;;;5055103;28;20132;-33
2022/12/01 00:03:25;;;;;;;174.88;54.03;;;5.20;99.90;;;;;;5055721;28;20075;-33
2022/12/01 00:06:14;;;;;;;178.48;54.83;;;5.20;99.90;;;;;;5055564;28;20570;-33
2022/12/01 00:10:24;;;;;;;160.73;51.65;;;5.20;99.90;;;;;;5055613;28;20052;-33
2022/12/01 00:11:26;;;;;;;147.82;51.53;;;5.10;99.90;;;;;;5055272;28;20056;-34
2022/12/01 00:13:51;;;;;;;158.95;52.65;;;5.10;99.90;;;;;;5055525;28;20037;-34
2022/12/01 00:16:17;;;;;;;154.13;50.03;;;5.20;99.90;;;;;;5054587;28;20095;-34
2022/12/01 00:18:43;;;;;;;156.32;52.45;;;5.20;99.90;;;;;;5055417;28;20462;-34
2022/12/01 00:21:13;;;;;;;158.32;50.38;;;5.20;99.90;;;;;;5055935;28;20392;-33
2022/12/01 00:23:42;;;;;;;153.60;52.85;;;5.20;99.90;;;;;;5055885;28;20045;-33
2022/12/01 00:26:08;;;;;;;158.02;51.22;;;5.20;99.90;;;;;;5055303;28;20041;-34
2022/12/01 00:28:34;;;;;;;165.75;54.45;;;5.10;99.90;;;;;;5055166;28;20045;-34
2022/12/01 00:30:59;;;;;;;155.95;53.72;;;5.20;99.90;;;;;;5055188;28;20041;-34
2022/12/01 00:33:25;;;;;;;151.27;50.58;;;5.50;99.90;;;;;;5055179;28;20510;-34
2022/12/01 00:35:57;;;;;;;173.32;55.75;;;5.20;99.90;;;;;;5054850;28;20048;-33
2022/12/01 00:38:23;;;;;;;158.52;52.22;;;5.20;99.90;;;;;;5055094;28;20041;-33
2022/12/01 00:40:49;;;;;;;158.20;51.08;;;5.10;99.90;;;;;;5055878;28;20045;-33
2022/12/01 00:43:14;;;;;;;167.68;53.28;;;5.10;99.90;;;;;;5054431;28;20052;-33
2022/12/01 00:45:41;;;;;;;166.52;53.47;;;5.10;99.90;;;;;;5054900;28;20114;-33
2022/12/01 00:48:07;;;;;;;174.13;53.22;;;5.10;99.90;;;;;;5054854;28;20560;-35
2022/12/01 00:50:33;;;;;;;163.48;53.88;;;5.10;99.90;;;;;;5054842;28;20048;-34
2022/12/01 00:52:58;;;;;;;171.25;52.47;;;5.10;99.90;;;;;;5055368;28;20045;-33
2022/12/01 00:55:24;;;;;;;172.00;55.03;;;5.20;99.90;;;;;;5053640;28;20243;-33
2022/12/01 00:57:50;;;;;;;169.10;52.67;;;5.10;99.90;;;;;;5054746;28;20064;-33
2022/12/01 01:00:16;;;;;;;179.40;54.95;;;5.20;99.90;;;;;;5054913;28;20128;-33
2022/12/01 01:02:42;;;;;;;165.15;54.17;;;5.10;99.90;;;;;;5053371;28;20096;-33
2022/12/01 01:05:08;;;;;;;162.27;53.20;;;5.20;99.90;;;;;;5054393;28;20080;-33
2022/12/01 01:07:33;;;;;;;164.73;53.15;;;5.10;99.90;;;;;;5054400;28;20131;-34
2022/12/01 01:09:59;;;;;;;169.43;54.63;;;5.20;99.90;;;;;;5054459;28;20041;-34
2022/12/01 01:12:26;;;;;;;164.23;54.08;;;5.10;99.90;;;;;;5054400;28;20041;-33
2022/12/01 01:14:52;;;;;;;160.63;53.95;;;5.10;99.90;;;;;;5054377;28;20395;-33
2022/12/01 01:17:18;;;;;;;188.07;57.33;;;5.10;99.90;;;;;;5036725;28;20132;-33
2022/12/01 01:19:44;;;;;;;154.70;53.63;;;5.10;99.90;;;;;;5054564;28;20396;-32
2022/12/01 01:22:10;;;;;;;151.25;51.25;;;5.10;99.90;;;;;;5054794;28;20056;-33
2022/12/01 01:24:36;;;;;;;154.95;53.35;;;5.10;99.90;;;;;;5054719;28;20501;-32
2022/12/01 01:27:02;;;;;;;160.23;53.92;;;5.20;99.90;;;;;;5054125;28;20060;-34
2022/12/01 01:29:28;;;;;;;157.27;54.58;;;5.20;99.90;;;;;;5054041;28;20068;-33
2022/12/01 01:31:53;;;;;;;177.73;55.95;;;5.10;99.90;;;;;;5054109;28;20049;-33
2022/12/01 01:34:20;;;;;;;165.77;55.15;;;5.20;99.90;;;;;;5052866;28;20435;-34
2022/12/01 01:36:46;;;;;;;147.20;52.80;;;5.20;99.90;;;;;;5053999;28;20055;-33
2022/12/01 01:39:11;;;;;;;145.63;52.63;;;5.20;99.90;;;;;;5086296;28;20044;-33
2022/12/01 01:41:37;;;;;;;170.63;53.60;;;5.20;99.90;;;;;;5054225;28;20049;-32
2022/12/01 01:44:41;;;;;;;148.50;52.42;;;5.10;99.90;;;;;;5053872;28;20474;-34
2022/12/01 01:47:07;;;;;;;149.32;51.92;;;5.20;99.90;;;;;;5054511;28;20130;-34
2022/12/01 01:49:32;;;;;;;159.48;52.67;;;5.20;99.90;;;;;;5053728;28;20483;-33
2022/12/01 01:51:58;;;;;;;150.82;52.13;;;5.20;99.90;;;;;;5053748;28;20044;-33
2022/12/01 01:54:41;;;;;;;151.80;53.05;;;5.30;99.90;;;;;;5053132;28;20077;-32
2022/12/01 01:57:09;;;;;;;147.63;52.65;;;5.20;99.90;;;;;;5085743;28;20045;-33
2022/12/01 01:59:46;;;;;;;161.63;53.25;;;5.10;99.90;;;;;;5053651;28;20051;-33
2022/12/01 02:02:12;;;;;;;154.13;52.22;;;5.20;99.90;;;;;;5054502;28;20455;-34
2022/12/01 02:04:43;;;;;;;155.20;53.20;;;5.20;99.90;;;;;;5053607;28;20071;-33
2022/12/01 02:07:11;;;;;;;148.82;50.90;;;5.20;99.90;;;;;;5053949;28;20135;-33
2022/12/01 02:09:36;;;;;;;157.45;56.10;;;5.20;99.90;;;;;;5053470;28;20411;-33
2022/12/01 02:12:12;;;;;;;151.20;52.92;;;5.10;99.90;;;;;;5053520;28;20053;-33
2022/12/01 02:14:47;;;;;;;147.38;54.70;;;5.10;99.90;;;;;;5053829;28;20048;-33
2022/12/01 02:17:54;;;;;;;163.68;54.38;;;5.20;99.90;;;;;;5053429;28;20052;-33
2022/12/01 02:20:51;;;;;;;154.13;55.83;;;5.10;99.90;;;;;;5054308;28;20088;-32
2022/12/01 02:23:47;;;;;;;161.25;57.00;;;5.10;99.90;;;;;;5053528;28;20053;-34
2022/12/01 02:26:15;;;;;;;154.98;53.60;;;5.10;99.90;;;;;;5052840;28;20048;-33
2022/12/01 02:28:56;;;;;;;164.93;53.08;;;5.10;99.90;;;;;;5053802;28;20052;-34
2022/12/01 02:31:41;;;;;;;169.07;52.58;;;5.00;99.90;;;;;;5053929;28;20060;-34
2022/12/01 02:34:16;;;;;;;188.15;56.60;;;5.00;99.90;;;;;;5053960;28;20049;-33
2022/12/01 02:37:13;;;;;;;152.00;53.30;;;5.00;99.90;;;;;;5053590;28;20041;-33
2022/12/01 02:39:53;;;;;;;153.55;51.53;;;4.90;99.90;;;;;;5085004;28;20491;-33
2022/12/01 02:42:52;;;;;;;164.93;52.58;;;4.90;99.90;;;;;;5052633;28;20059;-34
2022/12/01 02:46:03;;;;;;;177.63;54.42;;;4.90;99.90;;;;;;5053221;28;20478;-33
2022/12/01 02:48:32;;;;;;;169.20;55.45;;;4.90;99.90;;;;;;5053795;28;20084;-33
2022/12/01 02:51:16;;;;;;;166.50;52.08;;;4.90;99.90;;;;;;5053154;28;20484;-33
2022/12/01 02:53:43;;;;;;;196.10;53.15;;;4.80;99.90;;;;;;5085754;28;20106;-33
2022/12/01 02:56:14;;;;;;;177.68;53.83;;;4.90;99.90;;;;;;5053136;28;20070;-33
2022/12/01 02:58:42;;;;;;;196.38;56.03;;;4.80;99.90;;;;;;5053065;28;20195;-33
2022/12/01 03:01:32;;;;;;;183.05;53.35;;;4.70;99.90;;;;;;5053398;28;20128;-33
2022/12/01 03:04:12;;;;;;;182.18;54.10;;;4.80;99.90;;;;;;5053106;28;20049;-34
2022/12/01 03:06:55;;;;;;;190.38;56.33;;;4.80;99.90;;;;;;5054548;28;20107;-33
2022/12/01 03:09:32;;;;;;;187.10;55.72;;;4.70;99.90;;;;;;5090076;28;20072;-34
2022/12/01 03:12:29;;;;;;;189.55;55.90;;;4.80;99.90;;;;;;5056757;28;20089;-32
2022/12/01 03:15:07;;;;;;;186.55;56.05;;;4.80;99.90;;;;;;5056713;28;20045;-32
2022/12/01 03:17:44;;;;;;;200.73;55.72;;;4.70;99.90;;;;;;5056553;28;20052;-32
2022/12/01 03:20:19;;;;;;;189.20;55.72;;;4.80;99.90;;;;;;5057184;28;20119;-33
2022/12/01 03:22:58;;;;;;;199.43;58.28;;;4.80;99.90;;;;;;5056576;28;20053;-35
2022/12/01 03:25:27;;;;;;;179.88;56.63;;;4.90;99.90;;;;;;5056519;28;20131;-33
2022/12/01 03:27:55;;;;;;;185.50;57.47;;;4.70;99.90;;;;;;5055378;28;20513;-33
2022/12/01 03:30:23;;;;;;;183.32;56.72;;;4.90;99.90;;;;;;5056973;28;20049;-33
2022/12/01 03:32:56;;;;;;;195.77;59.47;;;4.80;99.90;;;;;;5056308;28;20491;-33
2022/12/01 03:35:32;;;;;;;188.40;54.85;;;4.80;99.90;;;;;;5056357;28;20056;-34
2022/12/01 03:38:22;;;;;;;185.55;56.70;;;4.80;99.90;;;;;;5056262;28;20081;-33
2022/12/01 03:40:51;;;;;;;179.38;55.45;;;4.80;99.90;;;;;;5051117;28;20096;-33
2022/12/01 03:43:26;;;;;;;197.50;59.50;;;4.80;99.90;;;;;;5056389;28;20045;-34
2022/12/01 03:46:08;;;;;;;196.27;56.35;;;4.80;99.90;;;;;;5056399;28;20049;-32
2022/12/01 03:48:34;;;;;;;197.98;57.33;;;4.90;99.90;;;;;;5056012;28;20494;-33
2022/12/01 03:51:20;;;;;;;193.02;57.13;;;4.90;99.90;;;;;;5055942;28;20041;-33
2022/12/01 03:54:27;;;;;;;208.38;58.13;;;4.80;99.90;;;;;;5056771;28;20049;-33
2022/12/01 03:56:58;;;;;;;181.70;55.53;;;4.90;99.90;;;;;;5055759;28;20045;-33
2022/12/01 03:59:26;;;;;;;186.52;58.60;;;4.90;99.90;;;;;;5056395;28;20055;-33
2022/12/01 04:01:52;;;;;;;184.15;56.65;;;4.90;99.90;;;;;;5056368;28;20124;-33
2022/12/01 04:04:18;;;;;;;180.20;57.60;;;4.90;99.90;;;;;;5056004;28;20057;-33
2022/12/01 04:06:47;;;;;;;179.65;56.78;;;4.80;99.90;;;;;;5054358;28;20514;-34
2022/12/01 04:09:13;;;;;;;178.82;56.85;;;4.90;99.90;;;;;;5054414;28;20049;-33
2022/12/01 04:14:23;;;;;;;183.95;56.05;;;4.90;99.90;;;;;;5056143;28;20064;-33
2022/12/01 04:16:49;;;;;;;185.40;57.30;;;4.90;99.90;;;;;;5055480;28;20128;-34
2022/12/01 04:19:14;;;;;;;201.38;55.72;;;5.00;99.90;;;;;;5054131;28;20041;-34
2022/12/01 04:21:40;;;;;;;175.90;55.75;;;4.90;99.90;;;;;;5087957;28;20110;-35
2022/12/01 04:24:06;;;;;;;203.70;57.22;;;4.90;99.90;;;;;;5055402;28;20045;-34
2022/12/01 04:26:34;;;;;;;185.63;53.40;;;4.90;99.90;;;;;;5055316;28;20049;-33
2022/12/01 04:29:05;;;;;;;183.10;53.63;;;4.90;99.90;;;;;;5055260;28;20045;-34
2022/12/01 04:31:31;;;;;;;206.52;56.22;;;5.10;99.90;;;;;;5056425;28;20127;-33
2022/12/01 04:33:57;;;;;;;200.60;57.42;;;4.80;99.90;;;;;;5055477;28;20131;-34
2022/12/01 04:36:24;;;;;;;186.45;56.60;;;4.80;99.90;;;;;;5054829;28;20570;-33
2022/12/01 04:38:50;;;;;;;198.73;56.65;;;4.80;99.90;;;;;;5055181;28;20041;-33
2022/12/01 04:41:16;;;;;;;190.95;56.03;;;4.80;99.90;;;;;;5055603;28;20045;-33
2022/12/01 04:43:42;;;;;;;177.18;53.60;;;4.80;99.90;;;;;;5055006;28;20052;-33
2022/12/01 04:46:08;;;;;;;177.00;55.33;;;4.80;99.90;;;;;;5054942;28;20068;-33
2022/12/01 04:48:34;;;;;;;184.35;54.97;;;4.70;99.90;;;;;;5053800;28;20471;-33
2022/12/01 04:51:01;;;;;;;176.07;52.40;;;4.80;99.90;;;;;;5054864;28;20059;-33
2022/12/01 04:53:27;;;;;;;178.50;52.25;;;4.70;99.90;;;;;;5053616;28;20483;-33
2022/12/01 04:55:53;;;;;;;176.20;52.03;;;4.70;99.90;;;;;;5054799;28;20045;-33
2022/12/01 04:58:18;;;;;;;163.35;50.45;;;4.60;99.90;;;;;;5055301;28;20045;-34
2022/12/01 05:00:44;;;;;;;191.70;50.10;;;4.60;99.90;;;;;;5054021;28;20041;-34
2022/12/01 05:03:10;;;;;;;198.43;52.88;;;4.60;99.90;;;;;;5054623;28;20059;-33
2022/12/01 05:05:36;;;;;;;190.40;49.35;;;4.50;99.90;;;;;;5054428;28;20088;-33
2022/12/01 05:08:02;;;;;;;199.10;52.75;;;4.40;99.90;;;;;;5054777;28;20402;-32
2022/12/01 05:10:27;;;;;;;198.02;52.88;;;4.30;99.90;;;;;;5054478;28;20045;-33
2022/12/01 05:12:54;;;;;;;207.88;55.17;;;4.10;99.90;;;;;;5054447;28;20045;-33
2022/12/01 05:15:19;;;;;;;219.55;55.75;;;4.00;99.90;;;;;;5054379;28;20128;-33
2022/12/01 05:17:45;;;;;;;234.35;56.22;;;3.90;99.90;;;;;;5054268;28;20124;-32
2022/12/01 05:23:02;;;;;;;240.93;55.50;;;3.60;99.90;;;;;;5055116;28;20061;-33
2022/12/01 05:25:28;;;;;;;213.75;50.45;;;3.50;99.90;;;;;;5054227;28;20365;-33
2022/12/01 05:27:53;;;;;;;223.43;52.95;;;3.30;99.90;;;;;;5054094;28;20049;-33
2022/12/01 05:30:19;;;;;;;253.50;55.42;;;3.20;99.90;;;;;;5054026;28;20048;-34
2022/12/01 05:32:45;;;;;;;214.15;52.72;;;3.10;99.90;;;;;;5054978;28;20044;-32
2022/12/01 05:35:11;;;;;;;210.55;52.85;;;3.10;99.90;;;;;;5054027;28;20044;-32
2022/12/01 05:37:36;;;;;;;249.05;56.85;;;3.10;99.90;;;;;;5052810;28;20049;-32
2022/12/01 05:40:02;;;;;;;275.07;57.77;;;2.90;99.90;;;;;;5036106;28;20111;-33
2022/12/01 05:42:28;;;;;;;276.40;58.88;;;2.80;99.90;;;;;;5053559;28;20037;-33
2022/12/01 05:44:54;;;;;;;331.48;64.80;;;2.60;99.90;;;;;;5053850;28;20045;-32
2022/12/01 05:47:20;;;;;;;414.63;72.00;;;2.60;99.90;;;;;;5036295;28;20045;-34
2022/12/01 05:49:45;;;;;;;637.33;77.82;;;2.50;99.90;;;;;;5054138;28;20128;-33
2022/12/01 05:52:11;;;;;;;1314.95;95.60;;;2.50;99.90;;;;;;5054179;28;20048;-32
2022/12/01 05:54:37;;;;;;;1334.65;79.53;;;2.30;99.90;;;;;;5052491;28;20055;-32
2022/12/01 05:57:03;;;;;;;1530.80;93.70;;;2.30;99.90;;;;;;5054158;28;20088;-33
2022/12/01 05:59:28;;;;;;;1106.13;52.50;;;2.60;99.90;;;;;;5054187;28;20067;-34
2022/12/01 06:01:54;;;;;;;1083.13;63.28;;;2.00;99.90;;;;;;5053608;28;20045;-33
2022/12/01 06:04:20;;;;;;;882.60;50.90;;;1.80;99.90;;;;;;5052478;28;20049;-33
2022/12/01 06:06:45;;;;;;;921.33;62.33;;;1.70;99.90;;;;;;5053453;28;20484;-33
2022/12/01 06:09:11;;;;;;;774.03;53.42;;;1.70;99.90;;;;;;5053412;28;20391;-32
2022/12/01 06:11:37;;;;;;;883.33;58.58;;;1.90;99.90;;;;;;5053992;28;20052;-33
2022/12/01 06:14:02;;;;;;;740.42;50.45;;;1.50;99.90;;;;;;5053506;28;20049;-32
2022/12/01 06:16:28;;;;;;;623.20;43.20;;;1.40;99.90;;;;;;5086928;28;20041;-33
2022/12/01 06:18:54;;;;;;;753.92;52.03;;;1.30;99.90;;;;;;5053383;28;20045;-32
2022/12/01 06:21:19;;;;;;;721.83;48.72;;;1.50;99.90;;;;;;5052302;28;20048;-33
2022/12/01 06:23:45;;;;;;;581.67;42.70;;;1.00;99.90;;;;;;5086075;28;20055;-33
2022/12/01 06:26:11;;;;;;;443.52;40.00;;;1.30;99.90;;;;;;5085687;28;20080;-33
2022/12/01 06:28:36;;;;;;;478.05;42.58;;;0.80;99.90;;;;;;5053633;28;20041;-33
2022/12/01 06:31:02;;;;;;;468.03;38.23;;;0.90;99.90;;;;;;5052245;28;20087;-33
2022/12/01 06:33:28;;;;;;;271.70;32.00;;;0.70;99.90;;;;;;5053356;28;20045;-33
2022/12/01 06:36:02;;;;;;;153.07;30.60;;;1.20;99.90;;;;;;5053336;28;20045;-33
2022/12/01 06:38:35;;;;;;;179.18;30.52;;;0.60;99.90;;;;;;5053287;28;20533;-33
2022/12/01 06:41:01;;;;;;;114.22;28.35;;;1.20;99.90;;;;;;5053811;28;20052;-33
2022/12/01 06:43:27;;;;;;;153.23;32.25;;;0.60;99.90;;;;;;5057283;28;20079;-34
2022/12/01 06:45:53;;;;;;;136.93;32.42;;;0.70;99.90;;;;;;5057156;28;20131;-34
2022/12/01 06:48:19;;;;;;;93.97;26.10;;;0.60;99.90;;;;;;5057116;28;20133;-33
2022/12/01 06:50:45;;;;;;;135.80;28.57;;;0.70;99.90;;;;;;5057082;28;20053;-33
2022/12/01 06:53:10;;;;;;;220.50;34.90;;;0.70;99.90;;;;;;5057060;28;20040;-32
2022/12/01 06:55:37;;;;;;;150.00;33.47;;;1.30;99.90;;;;;;5056775;28;20040;-33
2022/12/01 06:58:04;;;;;;;167.97;35.43;;;0.70;99.90;;;;;;5090022;28;20045;-33
2022/12/01 07:00:29;;;;;;;186.90;37.60;;;0.70;99.90;;;;;;5056948;28;20047;-32
2022/12/01 07:02:55;;;;;;;194.23;38.20;;;0.80;99.90;;;;;;5089485;28;20045;-32
2022/12/01 07:05:21;;;;;;;221.93;38.60;;;0.60;99.90;;;;;;5056927;28;20056;-32
2022/12/01 07:07:47;;;;;;;133.47;30.50;;;0.60;99.90;;;;;;5056848;28;20471;-33
2022/12/01 07:10:13;;;;;;;148.43;29.93;;;0.50;99.90;;;;;;5056719;28;20080;-33
2022/12/01 07:12:39;;;;;;;169.13;32.47;;;0.60;99.90;;;;;;5057569;28;20068;-33
2022/12/01 07:15:07;;;;;;;108.47;28.17;;;0.30;99.90;;;;;;5090162;28;20079;-33
2022/12/01 07:17:34;;;;;;;104.73;30.27;;;0.50;99.90;;;;;;5056960;28;20049;-33
2022/12/01 07:19:59;;;;;;;111.00;30.97;;;0.60;99.90;;;;;;5056652;28;20483;-33
2022/12/01 07:22:26;;;;;;;140.23;32.73;;;0.70;99.90;;;;;;5056521;28;20040;-33
2022/12/01 07:24:52;;;;;;;115.20;31.07;;;0.70;99.90;;;;;;5056801;28;20099;-33
2022/12/01 07:27:18;;;;;;;134.57;32.97;;;0.60;99.90;;;;;;5055234;28;20041;-33
2022/12/01 07:29:43;;;;;;;139.77;33.88;;;0.90;99.90;;;;;;5056355;28;20045;-34
2022/12/01 07:32:09;;;;;;;125.35;30.95;;;0.70;99.90;;;;;;5056365;28;20041;-32
2022/12/01 07:34:35;;;;;;;151.23;35.17;;;0.90;99.90;;;;;;5056437;28;20095;-32
2022/12/01 07:37:00;;;;;;;164.90;34.80;;;0.90;99.90;;;;;;5056520;28;20059;-33
2022/12/01 07:39:26;;;;;;;155.80;29.83;;;0.60;99.90;;;;;;5055304;28;20041;-33
2022/12/01 07:41:52;;;;;;;250.87;37.20;;;0.60;99.90;;;;;;5056450;28;20048;-33
2022/12/01 07:44:17;;;;;;;258.07;36.73;;;0.60;99.90;;;;;;5054931;28;20049;-33
2022/12/01 07:46:43;;;;;;;98.87;28.73;;;0.30;99.90;;;;;;5056084;28;20045;-34
2022/12/01 07:49:11;;;;;;;98.07;27.63;;;0.10;99.90;;;;;;5056009;28;20601;-33
2022/12/01 07:51:36;;;;;;;106.72;29.38;;;0.10;99.90;;;;;;5088661;28;20088;-32
2022/12/01 07:54:04;;;;;;;101.07;29.83;;;0.30;99.90;;;;;;5054294;28;20115;-32
2022/12/01 07:56:30;;;;;;;112.47;33.53;;;0.40;99.90;;;;;;5054730;28;20080;-32
2022/12/01 07:58:55;;;;;;;133.87;34.27;;;0.50;99.90;;;;;;5055823;28;20041;-34
2022/12/01 08:01:23;;;;;;;152.67;35.57;;;0.50;99.90;;;;;;5055840;28;20044;-33
2022/12/01 08:03:54;;;;;;;128.03;32.20;;;1.50;99.90;;;;;;5056051;28;20040;-33
2022/12/01 08:06:20;;;;;;;129.90;30.07;;;0.60;99.90;;;;;;5054500;28;20045;-33
2022/12/01 08:08:47;;;;;;;112.50;29.33;;;0.50;99.90;;;;;;5088137;28;20140;-33
2022/12/01 08:11:24;;;;;;;131.63;31.83;;;0.40;99.90;;;;;;5056219;28;20059;-33
2022/12/01 08:13:52;;;;;;;133.27;29.50;;;0.70;99.90;;;;;;5055675;28;20102;-34
2022/12/01 08:16:19;;;;;;;182.63;29.13;;;1.20;99.90;;;;;;5055555;28;20048;-32
2022/12/01 08:18:45;;;;;;;122.53;24.47;;;0.50;99.90;;;;;;5055135;28;20501;-34
2022/12/01 08:21:17;;;;;;;127.35;24.90;;;0.60;99.90;;;;;;5055516;28;20045;-32
2022/12/01 08:23:43;;;;;;;127.17;25.03;;;0.60;99.90;;;;;;5056287;28;20045;-33
2022/12/01 08:26:13;;;;;;;318.13;35.93;;;1.40;99.90;;;;;;5055070;28;20407;-33
2022/12/01 08:28:39;;;;;;;203.82;33.85;;;0.90;99.90;;;;;;5054149;28;20045;-32
2022/12/01 08:31:14;;;;;;;115.50;28.47;;;0.60;99.90;;;;;;5055307;28;20059;-34
2022/12/01 08:33:40;;;;;;;121.53;28.73;;;0.60;99.90;;;;;;5055248;28;20128;-34
2022/12/01 08:36:06;;;;;;;110.07;26.53;;;0.80;99.90;;;;;;5070938;28;20132;-33
2022/12/01 08:38:32;;;;;;;103.67;25.07;;;0.80;99.90;;;;;;5054171;28;20148;-33
2022/12/01 08:41:07;;;;;;;114.90;23.53;;;0.40;99.90;;;;;;5055097;28;20124;-33
2022/12/01 08:43:33;;;;;;;96.63;24.15;;;0.60;99.90;;;;;;5053536;28;20491;-33
2022/12/01 08:46:00;;;;;;;79.00;19.70;;;0.60;99.90;;;;;;5054699;28;20045;-34
2022/12/01 08:48:28;;;;;;;75.20;20.43;;;0.70;99.90;;;;;;5054876;28;20045;-33
2022/12/01 08:51:01;;;;;;;76.13;21.35;;;0.60;99.90;;;;;;5054874;28;20095;-33
2022/12/01 08:53:26;;;;;;;70.03;22.77;;;0.70;99.90;;;;;;5054880;28;20076;-34
2022/12/01 08:55:52;;;;;;;57.17;21.10;;;0.70;99.90;;;;;;5053536;28;20454;-33
2022/12/01 08:58:18;;;;;;;64.22;20.83;;;1.00;99.90;;;;;;5055557;28;20063;-34
2022/12/01 09:00:44;;;;;;;61.30;21.33;;;1.60;99.90;;;;;;5054661;28;20441;-34
2022/12/01 09:03:09;;;;;;;80.57;22.13;;;1.60;99.90;;;;;;5054690;28;20128;-33
2022/12/01 09:05:35;;;;;;;80.50;23.40;;;0.90;99.90;;;;;;5053100;28;20045;-34
2022/12/01 09:10:51;;;;;;;65.50;21.17;;;1.40;99.90;;;;;;5054547;28;20084;-33
2022/12/01 09:13:17;;;;;;;87.80;24.87;;;1.20;99.90;;;;;;5053282;28;20099;-33
2022/12/01 09:15:43;;;;;;;98.57;26.83;;;1.60;99.90;;;;;;5053299;28;20056;-33
2022/12/01 09:18:08;;;;;;;59.97;22.80;;;1.50;99.90;;;;;;5054598;28;20083;-33
2022/12/01 09:20:34;;;;;;;70.80;24.55;;;1.90;99.90;;;;;;5054280;28;20111;-33
2022/12/01 09:23:00;;;;;;;69.40;24.17;;;2.10;99.90;;;;;;5054821;28;20052;-34
2022/12/01 09:25:26;;;;;;;72.25;24.65;;;2.10;99.90;;;;;;5054519;28;20045;-33
2022/12/01 09:27:51;;;;;;;79.22;25.15;;;2.70;99.90;;;;;;5086763;28;20403;-34
2022/12/01 09:30:17;;;;;;;75.43;27.95;;;2.20;99.90;;;;;;5054025;28;20045;-34
2022/12/01 09:32:43;;;;;;;73.78;26.65;;;3.00;99.90;;;;;;5052939;28;20052;-34
2022/12/01 09:35:08;;;;;;;74.00;28.38;;;2.60;99.90;;;;;;5054874;28;20045;-33
2022/12/01 09:37:34;;;;;;;76.00;30.15;;;2.70;99.90;;;;;;5054570;28;20411;-35
2022/12/01 09:40:00;;;;;;;89.88;31.27;;;3.20;99.90;;;;;;5036371;28;20126;-33
2022/12/01 09:42:26;;;;;;;73.88;29.33;;;3.30;99.90;;;;;;5054502;28;20103;-34
2022/12/01 09:44:55;;;;;;;69.50;27.40;;;3.60;99.90;;;;;;5054455;28;20049;-33
2022/12/01 09:47:26;;;;;;;65.75;27.55;;;3.50;99.90;;;;;;5053951;28;20084;-34
2022/12/01 09:50:13;;;;;;;74.25;29.83;;;3.80;99.90;;;;;;5054577;28;20045;-34
2022/12/01 09:52:50;;;;;;;70.57;29.27;;;3.80;99.90;;;;;;5053506;28;20118;-33
2022/12/01 09:55:20;;;;;;;58.30;26.92;;;3.90;99.90;;;;;;5053225;28;20103;-34
2022/12/01 09:57:47;;;;;;;56.95;24.95;;;4.20;99.90;;;;;;5053740;28;20041;-33
2022/12/01 10:00:16;;;;;;;75.97;29.08;;;4.30;99.90;;;;;;5054309;28;20095;-33
2022/12/01 10:03:19;;;;;;;57.05;27.00;;;4.20;99.90;;;;;;5053712;28;20456;-33
2022/12/01 10:05:50;;;;;;;61.30;26.35;;;4.30;99.90;;;;;;5052184;28;20088;-33
2022/12/01 10:08:21;;;;;;;63.63;27.88;;;4.50;99.90;;;;;;5053564;28;20056;-34
2022/12/01 10:10:50;;;;;;;49.03;24.05;;;4.50;99.90;;;;;;5054170;28;20052;-33
2022/12/01 10:13:17;;;;;;;59.50;25.63;;;4.60;99.90;;;;;;5053548;28;20048;-33
2022/12/01 10:15:58;;;;;;;54.30;25.70;;;4.70;99.90;;;;;;5052719;28;20044;-34
2022/12/01 10:18:55;;;;;;;54.85;26.42;;;4.80;99.90;;;;;;5053470;28;20128;-33
2022/12/01 10:22:05;;;;;;;52.72;23.20;;;4.70;99.90;;;;;;5054106;28;20045;-34
2022/12/01 10:25:00;;;;;;;42.75;23.25;;;4.90;99.90;;;;;;5048502;28;20158;-33
2022/12/01 10:27:50;;;;;;;44.70;22.40;;;4.90;99.90;;;;;;5053426;28;20479;-33
2022/12/01 10:30:20;;;;;;;41.83;21.45;;;4.90;99.90;;;;;;5053664;28;20056;-33
2022/12/01 10:32:56;;;;;;;43.60;22.95;;;5.10;99.90;;;;;;5053354;28;20167;-33
2022/12/01 10:35:28;;;;;;;38.28;21.55;;;5.10;99.90;;;;;;5085948;28;20049;-33
2022/12/01 10:37:57;;;;;;;37.83;20.13;;;5.30;99.90;;;;;;5053390;28;20045;-33
2022/12/01 10:40:24;;;;;;;39.85;21.05;;;5.50;99.90;;;;;;5053243;28;20045;-33
2022/12/01 10:42:50;;;;;;;34.33;19.00;;;5.60;99.90;;;;;;5053266;28;20052;-34
2022/12/01 10:45:24;;;;;;;37.30;20.15;;;5.80;99.90;;;;;;5053534;28;20048;-33
2022/12/01 10:48:14;;;;;;;32.22;17.98;;;5.90;99.90;;;;;;5053245;28;20037;-33
2022/12/01 10:50:45;;;;;;;33.47;18.08;;;6.10;99.90;;;;;;5052374;28;20045;-34
2022/12/01 10:53:24;;;;;;;26.63;15.32;;;6.20;99.90;;;;;;5053319;28;20059;-34
2022/12/01 10:56:19;;;;;;;25.13;14.85;;;6.40;99.90;;;;;;5086566;28;20068;-34
2022/12/01 10:58:52;;;;;;;23.20;14.30;;;6.50;99.90;;;;;;5055796;28;20514;-34
2022/12/01 11:01:21;;;;;;;22.65;14.43;;;6.50;99.90;;;;;;5053177;28;20128;-35
2022/12/01 11:04:19;;;;;;;23.98;15.00;;;6.60;99.90;;;;;;5053105;28;20056;-34
2022/12/01 11:06:49;;;;;;;20.45;13.65;;;6.60;99.90;;;;;;5053197;28;20064;-34
2022/12/01 11:09:20;;;;;;;21.90;14.13;;;6.60;99.90;;;;;;5052961;28;20048;-34
2022/12/01 11:11:57;;;;;;;20.15;13.15;;;6.70;99.90;;;;;;5085528;28;20045;-34
2022/12/01 11:14:33;;;;;;;21.73;13.68;;;6.90;99.90;;;;;;5086086;28;20443;-34
2022/12/01 11:17:14;;;;;;;23.33;14.23;;;7.00;99.90;;;;;;5053311;28;20128;-34
2022/12/01 11:19:40;;;;;;;24.25;14.02;;;7.20;99.90;;;;;;5053337;28;20048;-33
2022/12/01 11:22:37;;;;;;;22.35;13.63;;;7.30;99.90;;;;;;5052611;28;20044;-34
2022/12/01 11:25:05;;;;;;;22.25;14.32;;;7.50;99.90;;;;;;5053467;28;20081;-34
2022/12/01 11:28:00;;;;;;;21.75;13.52;;;7.60;99.90;;;;;;5052906;28;20045;-33
2022/12/01 11:30:28;;;;;;;24.60;15.48;;;7.80;99.90;;;;;;5052340;28;20056;-34
2022/12/01 11:33:02;;;;;;;26.13;16.88;;;7.90;99.90;;;;;;5056672;28;20145;-34
2022/12/01 11:35:33;;;;;;;28.42;17.27;;;8.10;99.90;;;;;;5088942;28;20057;-34
2022/12/01 11:38:02;;;;;;;27.38;18.65;;;8.20;99.90;;;;;;5088906;28;20041;-34
2022/12/01 11:40:36;;;;;;;31.45;19.42;;;8.20;99.90;;;;;;5056535;28;20045;-34
2022/12/01 11:43:05;;;;;;;31.13;20.75;;;8.20;99.90;;;;;;5056203;28;20499;-34
2022/12/01 11:45:39;;;;;;;32.17;19.33;;;8.20;99.90;;;;;;5056147;28;20052;-34
2022/12/01 11:48:24;;;;;;;34.13;20.23;;;8.10;99.90;;;;;;5056163;28;20048;-34
2022/12/01 11:51:03;;;;;;;32.95;19.65;;;7.90;99.90;;;;;;5056433;28;20041;-34
2022/12/01 11:53:31;;;;;;;36.88;21.40;;;7.70;99.90;;;;;;5055596;28;20055;-34
2022/12/01 11:56:27;;;;;;;36.97;22.52;;;7.70;99.90;;;;;;5055997;28;20045;-33
2022/12/01 11:59:05;;;;;;;40.22;23.70;;;7.60;99.90;;;;;;5055733;28;20495;-33
2022/12/01 12:02:00;;;;;;;41.15;23.85;;;7.50;99.90;;;;;;5055963;28;20049;-34
2022/12/01 12:05:02;;;;;;;36.25;22.48;;;7.50;99.90;;;;;;5044327;28;20060;-33
2022/12/01 12:07:34;;;;;;;42.25;25.25;;;7.40;99.90;;;;;;5055269;28;20057;-34
2022/12/01 12:10:21;;;;;;;34.92;21.20;;;7.40;99.90;;;;;;5088909;28;20106;-34
2022/12/01 12:13:41;;;;;;;39.38;22.55;;;7.50;99.90;;;;;;5055632;28;20064;-33
2022/12/01 12:16:22;;;;;;;39.85;22.88;;;7.40;99.90;;;;;;5013623;28;20523;-34
2022/12/01 12:19:06;;;;;;;36.85;22.50;;;7.50;99.90;;;;;;5056320;28;20052;-34
2022/12/01 12:21:44;;;;;;;38.00;23.40;;;7.70;99.90;;;;;;5055498;28;20491;-34
2022/12/01 12:24:28;;;;;;;41.63;24.13;;;8.10;99.90;;;;;;5056323;28;20114;-33
2022/12/01 12:27:28;;;;;;;41.72;23.85;;;8.40;99.90;;;;;;5055717;28;20475;-33
2022/12/01 12:30:16;;;;;;;40.63;23.73;;;8.60;99.90;;;;;;5054417;28;20044;-34
2022/12/01 12:33:25;;;;;;;38.85;24.10;;;8.80;99.90;;;;;;5055188;28;20103;-33
2022/12/01 12:36:21;;;;;;;42.50;25.42;;;8.50;99.90;;;;;;5087826;28;20540;-33
2022/12/01 12:39:03;;;;;;;42.45;25.50;;;8.00;99.90;;;;;;5036299;28;20487;-34
2022/12/01 12:41:48;;;;;;;45.67;25.45;;;7.90;99.90;;;;;;5055173;28;20045;-33
2022/12/01 12:44:42;;;;;;;42.30;25.27;;;8.00;99.90;;;;;;5055032;28;20052;-33
2022/12/01 12:47:23;;;;;;;;;;;8.30;99.90;;;;;;5055992;28;20049;-33
2022/12/01 12:49:51;;;;;;;36.60;22.08;;;8.40;99.90;;;;;;5054927;28;19924;-34
2022/12/01 12:52:32;;;;;;;41.38;23.80;;;8.90;99.90;;;;;;5054884;28;20425;-34
2022/12/01 12:55:29;;;;;;;37.60;23.77;;;9.30;99.90;;;;;;5054972;28;20053;-34
2022/12/01 12:58:02;;;;;;;41.28;24.63;;;9.60;99.90;;;;;;5054732;28;20089;-33
2022/12/01 13:00:28;;;;;;;35.75;23.80;;;9.90;99.90;;;;;;5055378;28;20040;-35
2022/12/01 13:03:14;;;;;;;43.28;26.42;;;10.00;99.90;;;;;;5054713;28;20049;-33